createdAt,value
2023-05-06T00:01:40.249Z,50.33
2023-05-06T00:04:13.637Z,50.35
2023-05-06T00:06:47.610Z,50.01
2023-05-06T00:09:21.548Z,49.88
2023-05-06T00:11:55.643Z,49.85
2023-05-06T00:14:29.718Z,49.78
2023-05-06T00:17:04.061Z,49.78
2023-05-06T00:19:38.921Z,49.89
2023-05-06T00:22:12.282Z,49.78
2023-05-06T00:24:45.548Z,49.65
2023-05-06T00:27:19.014Z,49.59
2023-05-06T00:29:53.101Z,49.59
2023-05-06T00:32:26.689Z,49.37
2023-05-06T00:35:00.706Z,49.26
2023-05-06T00:37:34.526Z,49.18
2023-05-06T00:40:09.993Z,48.98
2023-05-06T00:42:43.337Z,48.76
2023-05-06T00:45:16.843Z,48.53
2023-05-06T00:47:50.378Z,48.32
2023-05-06T00:50:25.972Z,48.13
2023-05-06T00:53:01.005Z,48.08
2023-05-06T00:55:34.772Z,47.94
2023-05-06T00:58:09.536Z,47.74
2023-05-06T01:00:43.342Z,47.69
2023-05-06T01:03:17.592Z,47.52
2023-05-06T01:05:59.509Z,47.35
2023-05-06T01:08:37.667Z,47.44
2023-05-06T01:11:15.942Z,47.32
2023-05-06T01:13:54.095Z,47.16
2023-05-06T01:16:31.211Z,47.11
2023-05-06T01:19:07.897Z,47.09
2023-05-06T01:21:43.490Z,46.97
2023-05-06T01:24:16.788Z,47.10
2023-05-06T01:26:50.370Z,47.32
2023-05-06T01:29:23.656Z,47.20
2023-05-06T01:32:01.502Z,47.12
2023-05-06T01:34:44.081Z,47.05
2023-05-06T01:37:24.974Z,47.06
2023-05-06T01:40:00.618Z,47.14
2023-05-06T01:42:35.835Z,47.03
2023-05-06T01:45:11.644Z,46.92
2023-05-06T01:47:46.769Z,46.96
2023-05-06T01:50:20.851Z,46.97
2023-05-06T01:53:02.202Z,47.02
2023-05-06T01:55:35.291Z,47.05
2023-05-06T01:58:08.785Z,47.00
2023-05-06T02:00:42.544Z,46.96
2023-05-06T02:03:15.752Z,46.96
2023-05-06T02:05:49.401Z,46.92
2023-05-06T02:08:23.152Z,46.89
2023-05-06T02:10:57.098Z,46.90
2023-05-06T02:13:30.816Z,46.91
2023-05-06T02:16:04.287Z,46.92
2023-05-06T02:18:38.672Z,46.83
2023-05-06T02:21:13.687Z,46.96
2023-05-06T02:23:47.144Z,47.01
2023-05-06T02:26:21.300Z,47.02
2023-05-06T02:28:55.197Z,46.99
2023-05-06T02:31:29.146Z,46.94
2023-05-06T02:34:02.786Z,46.92
2023-05-06T02:36:36.644Z,46.96
2023-05-06T02:39:10.208Z,46.98
2023-05-06T02:41:43.909Z,46.91
2023-05-06T02:44:17.879Z,46.81
2023-05-06T02:46:52.040Z,46.82
2023-05-06T02:49:25.630Z,46.81
2023-05-06T02:51:58.825Z,46.78
2023-05-06T02:54:32.657Z,46.68
2023-05-06T02:57:06.434Z,46.63
2023-05-06T02:59:41.005Z,46.68
2023-05-06T03:02:14.501Z,46.68
2023-05-06T03:04:48.117Z,46.71
2023-05-06T03:07:21.528Z,46.72
2023-05-06T03:09:56.189Z,46.76
2023-05-06T03:12:30.351Z,46.97
2023-05-06T03:15:03.702Z,47.00
2023-05-06T03:17:38.058Z,46.91
2023-05-06T03:20:13.938Z,47.06
2023-05-06T03:22:51.006Z,47.01
2023-05-06T03:25:25.167Z,47.02
2023-05-06T03:27:59.012Z,46.94
2023-05-06T03:30:34.107Z,46.92
2023-05-06T03:33:08.703Z,46.83
2023-05-06T03:35:42.933Z,46.83
2023-05-06T03:38:16.992Z,46.83
2023-05-06T03:40:56.659Z,46.73
2023-05-06T03:43:30.985Z,46.68
2023-05-06T03:46:08.102Z,46.66
2023-05-06T03:48:43.427Z,46.68
2023-05-06T03:51:18.996Z,46.89
2023-05-06T03:53:54.723Z,46.91
2023-05-06T03:56:28.613Z,47.02
2023-05-06T03:59:02.378Z,47.02
2023-05-06T04:01:36.902Z,47.09
2023-05-06T04:04:11.203Z,46.94
2023-05-06T04:06:46.034Z,47.10
2023-05-06T04:09:19.486Z,47.09
2023-05-06T04:11:54.461Z,47.04
2023-05-06T04:14:28.495Z,47.00
2023-05-06T04:17:02.272Z,46.92
2023-05-06T04:19:36.179Z,46.87
2023-05-06T04:22:09.857Z,47.06
2023-05-06T04:24:45.970Z,47.05
2023-05-06T04:27:20.653Z,47.09
2023-05-06T04:29:54.256Z,47.06
2023-05-06T04:32:28.438Z,47.09
2023-05-06T04:35:02.504Z,47.11
2023-05-06T04:37:36.365Z,47.08
2023-05-06T04:40:18.370Z,47.09
2023-05-06T04:42:54.203Z,47.19
2023-05-06T04:45:34.886Z,47.30
2023-05-06T04:48:10.352Z,47.30
2023-05-06T04:50:44.396Z,47.37
2023-05-06T04:53:18.203Z,47.54
2023-05-06T04:55:51.727Z,47.45
2023-05-06T04:58:25.790Z,47.37
2023-05-06T05:00:59.391Z,47.34
2023-05-06T05:03:33.303Z,47.49
2023-05-06T05:06:09.116Z,47.58
2023-05-06T05:08:43.551Z,47.62
2023-05-06T05:11:17.075Z,47.61
2023-05-06T05:13:51.307Z,47.57
2023-05-06T05:16:25.425Z,47.53
2023-05-06T05:19:01.571Z,47.55
2023-05-06T05:21:37.875Z,47.51
2023-05-06T05:24:11.804Z,47.45
2023-05-06T05:26:45.148Z,47.56
2023-05-06T05:29:19.127Z,47.36
2023-05-06T05:31:52.761Z,47.42
2023-05-06T05:34:26.677Z,47.40
2023-05-06T05:37:02.270Z,47.21
2023-05-06T05:39:36.733Z,47.12
2023-05-06T05:42:10.344Z,47.19
2023-05-06T05:44:44.950Z,47.45
2023-05-06T05:47:19.144Z,47.47
2023-05-06T05:49:52.979Z,47.43
2023-05-06T05:52:27.386Z,47.22
2023-05-06T05:55:01.365Z,47.21
2023-05-06T05:57:35.372Z,47.20
2023-05-06T06:00:12.818Z,47.15
2023-05-06T06:02:53.760Z,46.95
2023-05-06T06:05:27.547Z,46.90
2023-05-06T06:08:03.634Z,46.93
2023-05-06T06:10:38.323Z,46.90
2023-05-06T06:13:16.813Z,46.89
2023-05-06T06:15:50.757Z,46.80
2023-05-06T06:18:24.566Z,46.69
2023-05-06T06:20:58.510Z,46.66
2023-05-06T06:23:32.452Z,46.40
2023-05-06T06:26:07.537Z,46.12
2023-05-06T06:28:42.202Z,45.80
2023-05-06T06:31:15.866Z,45.86
2023-05-06T06:33:49.299Z,45.61
2023-05-06T06:36:23.006Z,45.30
2023-05-06T06:38:56.315Z,45.06
2023-05-06T06:41:30.309Z,44.98
2023-05-06T06:44:03.959Z,44.81
2023-05-06T06:46:37.631Z,44.58
2023-05-06T06:49:11.230Z,44.35
2023-05-06T06:51:44.599Z,44.13
2023-05-06T06:54:18.085Z,43.98
2023-05-06T06:56:51.770Z,43.82
2023-05-06T06:59:25.213Z,43.89
2023-05-06T07:01:58.848Z,43.77
2023-05-06T07:04:32.697Z,43.60
2023-05-06T07:07:07.133Z,43.46
2023-05-06T07:09:41.496Z,43.07
2023-05-06T07:12:15.448Z,43.35
2023-05-06T07:14:49.939Z,43.67
2023-05-06T07:17:23.839Z,42.93
2023-05-06T07:19:57.415Z,42.66
2023-05-06T07:22:31.657Z,43.11
2023-05-06T07:25:05.923Z,43.11
2023-05-06T07:27:39.682Z,42.80
2023-05-06T07:30:14.949Z,42.52
2023-05-06T07:32:49.113Z,42.81
2023-05-06T07:35:23.083Z,42.57
2023-05-06T07:37:57.348Z,42.40
2023-05-06T07:40:30.716Z,42.45
2023-05-06T07:43:04.990Z,42.47
2023-05-06T07:45:38.935Z,42.39
2023-05-06T07:48:12.337Z,42.36
2023-05-06T07:50:46.051Z,42.10
2023-05-06T07:53:19.615Z,41.76
2023-05-06T07:55:52.844Z,41.82
2023-05-06T07:58:26.792Z,41.91
2023-05-06T08:01:00.688Z,41.50
2023-05-06T08:03:35.294Z,41.08
2023-05-06T08:06:09.675Z,40.84
2023-05-06T08:08:43.458Z,40.92
2023-05-06T08:11:19.354Z,40.85
2023-05-06T08:13:53.572Z,40.60
2023-05-06T08:16:27.264Z,40.41
2023-05-06T08:19:00.860Z,40.09
2023-05-06T08:21:34.392Z,40.28
2023-05-06T08:24:08.604Z,40.46
2023-05-06T08:26:42.704Z,40.30
2023-05-06T08:29:16.273Z,40.21
2023-05-06T08:31:49.832Z,40.08
2023-05-06T08:34:23.940Z,40.28
2023-05-06T08:36:57.581Z,40.20
2023-05-06T08:39:31.537Z,40.13
2023-05-06T08:42:07.326Z,40.40
2023-05-06T08:44:41.242Z,40.15
2023-05-06T08:47:15.334Z,40.05
2023-05-06T08:49:48.769Z,40.28
2023-05-06T08:52:23.666Z,40.22
2023-05-06T08:55:02.005Z,39.89
2023-05-06T08:57:37.024Z,39.85
2023-05-06T09:00:15.229Z,39.53
2023-05-06T09:02:49.127Z,39.74
2023-05-06T09:05:23.513Z,39.88
2023-05-06T09:07:57.051Z,39.95
2023-05-06T09:10:35.048Z,39.94
2023-05-06T09:13:08.955Z,40.12
2023-05-06T09:15:47.775Z,40.25
2023-05-06T09:18:19.784Z,40.71
2023-05-06T09:20:53.227Z,41.14
2023-05-06T09:23:26.854Z,41.54
2023-05-06T09:26:01.899Z,41.64
2023-05-06T09:28:36.671Z,41.63
2023-05-06T09:31:10.496Z,41.54
2023-05-06T09:33:44.317Z,41.25
2023-05-06T09:36:18.025Z,41.42
2023-05-06T09:38:54.508Z,41.42
2023-05-06T09:41:28.444Z,41.44
2023-05-06T09:44:02.074Z,41.53
2023-05-06T09:46:36.336Z,41.45
2023-05-06T09:49:10.621Z,42.24
2023-05-06T09:51:48.380Z,42.58
2023-05-06T09:54:22.797Z,42.71
2023-05-06T09:56:57.834Z,43.04
2023-05-06T09:59:34.469Z,43.12
2023-05-06T10:02:09.664Z,43.31
2023-05-06T10:04:45.110Z,43.50
2023-05-06T10:07:23.147Z,43.58
2023-05-06T10:09:58.697Z,43.66
2023-05-06T10:12:32.840Z,44.08
2023-05-06T10:15:07.625Z,44.26
2023-05-06T10:17:46.457Z,44.23
2023-05-06T10:20:23.029Z,43.64
2023-05-06T10:23:05.245Z,43.43
2023-05-06T10:25:41.048Z,43.69
2023-05-06T10:28:19.534Z,43.60
2023-05-06T10:31:08.644Z,43.54
2023-05-06T10:33:43.987Z,43.75
2023-05-06T10:36:22.451Z,43.97
2023-05-06T10:38:59.013Z,43.80
2023-05-06T10:41:33.659Z,43.58
2023-05-06T10:44:07.628Z,43.43
2023-05-06T10:47:02.105Z,43.29
2023-05-06T10:49:36.320Z,43.53
2023-05-06T10:52:17.512Z,43.29
2023-05-06T10:54:53.209Z,43.33
2023-05-06T10:57:27.561Z,43.11
2023-05-06T11:00:01.707Z,43.21
2023-05-06T11:02:35.481Z,43.74
2023-05-06T11:05:11.296Z,43.37
2023-05-06T11:07:45.267Z,43.07
2023-05-06T11:10:32.674Z,43.04
2023-05-06T11:13:23.517Z,43.01
2023-05-06T11:15:58.533Z,43.22
2023-05-06T11:18:47.881Z,43.29
2023-05-06T11:21:41.999Z,43.49
2023-05-06T11:24:16.799Z,43.45
2023-05-06T11:26:51.601Z,43.64
2023-05-06T11:29:25.623Z,43.64
2023-05-06T11:31:59.834Z,43.30
2023-05-06T11:34:35.662Z,43.42
2023-05-06T11:37:10.928Z,43.60
2023-05-06T11:39:51.320Z,44.23
2023-05-06T11:42:30.223Z,44.09
2023-05-06T11:45:05.929Z,43.95
2023-05-06T11:47:45.986Z,43.84
2023-05-06T11:50:25.589Z,44.15
2023-05-06T11:52:59.738Z,44.00
2023-05-06T11:55:33.565Z,44.34
2023-05-06T11:58:07.386Z,44.68
2023-05-06T12:00:49.032Z,44.96
2023-05-06T12:03:24.990Z,44.99
2023-05-06T12:05:59.077Z,44.81
2023-05-06T12:08:35.157Z,44.79
2023-05-06T12:11:10.542Z,45.07
2023-05-06T12:13:44.531Z,45.35
2023-05-06T12:16:18.771Z,45.05
2023-05-06T12:18:53.683Z,45.66
2023-05-06T12:21:28.860Z,46.15
2023-05-06T12:24:03.921Z,46.66
2023-05-06T12:26:52.248Z,47.02
2023-05-06T12:29:25.928Z,47.10
2023-05-06T12:32:13.245Z,47.41
2023-05-06T12:34:46.990Z,47.81
2023-05-06T12:37:30.479Z,48.51
2023-05-06T12:40:04.366Z,49.92
2023-05-06T12:42:37.980Z,50.12
2023-05-06T12:45:21.625Z,50.21
2023-05-06T12:48:00.023Z,50.40
2023-05-06T12:50:41.783Z,50.69
2023-05-06T12:53:32.029Z,50.50
2023-05-06T12:56:05.716Z,50.85
2023-05-06T12:58:40.094Z,51.20
2023-05-06T13:01:13.954Z,51.51
2023-05-06T13:03:47.693Z,51.60
2023-05-06T13:06:21.309Z,52.02
2023-05-06T13:08:54.892Z,52.30
2023-05-06T13:11:28.726Z,52.56
2023-05-06T13:14:02.561Z,52.89
2023-05-06T13:16:36.800Z,52.83
2023-05-06T13:19:21.261Z,52.83
2023-05-06T13:21:59.107Z,52.94
2023-05-06T13:24:32.711Z,53.08
2023-05-06T13:27:06.464Z,53.02
2023-05-06T13:29:40.058Z,53.53
2023-05-06T13:32:13.263Z,53.82
2023-05-06T13:34:47.051Z,53.85
2023-05-06T13:37:20.710Z,54.15
2023-05-06T13:39:54.272Z,54.68
2023-05-06T13:42:27.868Z,55.11
2023-05-06T13:45:01.339Z,55.47
2023-05-06T13:47:35.330Z,55.46
2023-05-06T13:50:10.524Z,55.68
2023-05-06T13:52:44.628Z,55.96
2023-05-06T13:55:19.503Z,56.01
2023-05-06T13:57:53.923Z,56.30
2023-05-06T14:00:27.834Z,56.21
2023-05-06T14:03:02.752Z,56.53
2023-05-06T14:05:36.637Z,56.63
2023-05-06T14:08:10.704Z,56.89
2023-05-06T14:10:44.197Z,57.13
2023-05-06T14:13:17.928Z,57.03
2023-05-06T14:15:51.576Z,57.14
2023-05-06T14:18:26.565Z,57.31
2023-05-06T14:21:00.895Z,57.15
2023-05-06T14:23:34.585Z,57.49
2023-05-06T14:26:08.173Z,57.71
2023-05-06T14:28:41.781Z,57.55
2023-05-06T14:31:15.545Z,57.62
2023-05-06T14:33:49.084Z,57.70
2023-05-06T14:36:25.626Z,58.02
2023-05-06T14:38:59.266Z,58.07
2023-05-06T14:41:32.802Z,58.06
2023-05-06T14:44:07.013Z,57.99
2023-05-06T14:46:40.716Z,58.15
2023-05-06T14:49:15.132Z,58.26
2023-05-06T14:51:50.169Z,58.47
2023-05-06T14:54:23.931Z,58.46
2023-05-06T14:57:01.738Z,58.80
2023-05-06T14:59:35.142Z,59.08
2023-05-06T15:02:11.439Z,59.17
2023-05-06T15:04:45.110Z,59.26
2023-05-06T15:07:18.820Z,59.31
2023-05-06T15:09:52.789Z,59.86
2023-05-06T15:12:26.526Z,59.77
2023-05-06T15:15:00.172Z,59.85
2023-05-06T15:17:33.937Z,60.12
2023-05-06T15:20:09.097Z,60.09
2023-05-06T15:22:42.909Z,60.03
2023-05-06T15:25:30.339Z,60.21
2023-05-06T15:28:08.938Z,60.41
2023-05-06T15:30:42.376Z,60.60
2023-05-06T15:33:15.766Z,60.58
2023-05-06T15:35:49.453Z,60.43
2023-05-06T15:38:23.356Z,60.57
2023-05-06T15:40:57.244Z,60.63
2023-05-06T15:43:37.754Z,60.95
2023-05-06T15:46:12.888Z,60.95
2023-05-06T15:48:46.730Z,61.05
2023-05-06T15:51:21.182Z,61.21
2023-05-06T15:53:54.612Z,61.41
2023-05-06T15:56:28.669Z,61.67
2023-05-06T15:59:02.216Z,61.98
2023-05-06T16:02:16.535Z,61.98
2023-05-06T16:04:31.986Z,62.22
2023-05-06T16:07:06.617Z,62.46
2023-05-06T16:09:40.429Z,62.38
2023-05-06T16:12:15.069Z,62.33
2023-05-06T16:14:48.418Z,62.57
2023-05-06T16:17:22.226Z,62.63
2023-05-06T16:19:56.271Z,62.63
2023-05-06T16:22:30.266Z,62.82
2023-05-06T16:25:04.728Z,63.08
2023-05-06T16:27:38.906Z,63.09
2023-05-06T16:30:14.942Z,63.22
2023-05-06T16:32:49.006Z,63.08
2023-05-06T16:35:22.661Z,63.24
2023-05-06T16:37:56.459Z,63.49
2023-05-06T16:40:31.417Z,63.44
2023-05-06T16:43:05.081Z,63.65
2023-05-06T16:45:39.922Z,63.65
2023-05-06T16:48:14.720Z,63.54
2023-05-06T16:50:48.155Z,63.52
2023-05-06T16:53:21.923Z,63.50
2023-05-06T16:55:55.450Z,63.70
2023-05-06T16:58:30.220Z,63.71
2023-05-06T17:01:03.745Z,63.89
2023-05-06T17:03:38.653Z,64.18
2023-05-06T17:06:12.622Z,64.14
2023-05-06T17:08:46.920Z,64.11
2023-05-06T17:11:21.026Z,64.24
2023-05-06T17:13:55.767Z,64.35
2023-05-06T17:16:29.111Z,64.55
2023-05-06T17:19:02.864Z,65.05
2023-05-06T17:21:36.487Z,65.40
2023-05-06T17:24:11.043Z,65.58
2023-05-06T17:26:44.806Z,65.55
2023-05-06T17:29:18.317Z,65.85
2023-05-06T17:31:51.913Z,66.18
2023-05-06T17:34:25.434Z,66.35
2023-05-06T17:37:00.309Z,66.81
2023-05-06T17:39:34.620Z,66.71
2023-05-06T17:42:08.746Z,66.60
2023-05-06T17:44:43.175Z,66.99
2023-05-06T17:47:17.821Z,67.32
2023-05-06T17:49:51.797Z,67.28
2023-05-06T17:52:25.666Z,67.02
2023-05-06T17:55:14.690Z,67.16
2023-05-06T17:57:49.533Z,67.31
2023-05-06T18:00:24.048Z,67.38
2023-05-06T18:02:58.129Z,67.39
2023-05-06T18:05:31.959Z,67.36
2023-05-06T18:08:06.183Z,67.21
2023-05-06T18:10:41.491Z,67.49
2023-05-06T18:13:15.312Z,67.80
2023-05-06T18:15:48.980Z,68.05
2023-05-06T18:18:22.787Z,67.95
2023-05-06T18:20:56.751Z,67.86
2023-05-06T18:23:30.801Z,68.07
2023-05-06T18:26:07.331Z,68.08
2023-05-06T18:28:41.821Z,68.07
2023-05-06T18:31:15.884Z,68.09
2023-05-06T18:33:49.851Z,67.94
2023-05-06T18:36:23.513Z,68.04
2023-05-06T18:38:57.356Z,68.51
2023-05-06T18:41:31.222Z,68.44
2023-05-06T18:44:06.140Z,68.53
2023-05-06T18:46:39.830Z,68.68
2023-05-06T18:49:14.404Z,68.46
2023-05-06T18:51:48.221Z,68.27
2023-05-06T18:54:21.936Z,68.31
2023-05-06T18:56:55.693Z,68.36
2023-05-06T18:59:29.756Z,68.20
2023-05-06T19:02:04.102Z,68.44
2023-05-06T19:04:38.813Z,68.22
2023-05-06T19:07:14.336Z,67.95
2023-05-06T19:09:49.309Z,67.96
2023-05-06T19:12:23.089Z,68.03
2023-05-06T19:14:56.782Z,68.32
2023-05-06T19:17:31.097Z,68.37
2023-05-06T19:20:05.567Z,68.34
2023-05-06T19:22:39.843Z,68.34
2023-05-06T19:25:14.590Z,68.46
2023-05-06T19:27:48.342Z,68.56
2023-05-06T19:30:22.518Z,68.51
2023-05-06T19:32:57.513Z,68.33
2023-05-06T19:35:31.179Z,68.45
2023-05-06T19:38:04.913Z,68.44
2023-05-06T19:40:39.033Z,68.59
2023-05-06T19:43:12.844Z,68.54
2023-05-06T19:45:46.533Z,68.49
2023-05-06T19:48:22.549Z,68.30
2023-05-06T19:50:56.551Z,68.41
2023-05-06T19:53:30.694Z,68.52
2023-05-06T19:56:12.435Z,68.57
2023-05-06T19:58:46.424Z,68.57
2023-05-06T20:01:22.908Z,68.56
2023-05-06T20:03:57.360Z,68.34
2023-05-06T20:06:32.087Z,68.52
2023-05-06T20:09:05.639Z,68.61
2023-05-06T20:11:42.364Z,68.56
2023-05-06T20:14:16.189Z,68.64
2023-05-06T20:16:49.925Z,68.60
2023-05-06T20:19:26.666Z,68.64
2023-05-06T20:22:00.771Z,69.14
2023-05-06T20:24:35.091Z,69.04
2023-05-06T20:27:08.997Z,68.83
2023-05-06T20:29:43.069Z,68.77
2023-05-06T20:32:16.749Z,68.76
2023-05-06T20:34:50.825Z,68.47
2023-05-06T20:37:24.774Z,68.62
2023-05-06T20:39:59.334Z,68.42
2023-05-06T20:42:33.826Z,68.43
2023-05-06T20:45:09.679Z,68.39
2023-05-06T20:47:43.882Z,68.28
2023-05-06T20:50:18.995Z,68.47
2023-05-06T20:52:53.197Z,68.49
2023-05-06T20:55:26.912Z,68.54
2023-05-06T20:58:01.151Z,68.40
2023-05-06T21:00:34.838Z,68.46
2023-05-06T21:03:08.806Z,68.32
2023-05-06T21:05:42.334Z,68.40
2023-05-06T21:08:16.100Z,68.35
2023-05-06T21:10:49.658Z,68.37
2023-05-06T21:13:23.142Z,68.60
2023-05-06T21:15:56.785Z,68.79
2023-05-06T21:18:30.949Z,68.87
2023-05-06T21:21:04.730Z,68.82
2023-05-06T21:23:38.148Z,68.59
2023-05-06T21:26:13.064Z,68.74
2023-05-06T21:28:51.980Z,68.82
2023-05-06T21:31:26.933Z,68.82
2023-05-06T21:34:01.890Z,68.84
2023-05-06T21:36:36.421Z,68.99
2023-05-06T21:39:12.685Z,68.76
2023-05-06T21:41:46.577Z,68.73
2023-05-06T21:44:19.930Z,68.45
2023-05-06T21:46:53.929Z,68.34
2023-05-06T21:49:27.741Z,68.20
2023-05-06T21:52:01.893Z,68.36
2023-05-06T21:54:35.823Z,68.36
2023-05-06T21:57:09.501Z,68.43
2023-05-06T21:59:43.176Z,68.58
2023-05-06T22:02:16.806Z,68.58
2023-05-06T22:04:50.859Z,68.57
2023-05-06T22:07:24.439Z,68.54
2023-05-06T22:09:57.946Z,68.49
2023-05-06T22:12:32.637Z,68.39
2023-05-06T22:15:07.419Z,68.23
2023-05-06T22:17:41.115Z,68.42
2023-05-06T22:20:15.662Z,68.48
2023-05-06T22:22:49.418Z,68.29
2023-05-06T22:25:23.035Z,68.34
2023-05-06T22:27:56.520Z,68.20
2023-05-06T22:30:30.461Z,68.26
2023-05-06T22:33:03.866Z,68.30
2023-05-06T22:35:37.492Z,68.26
2023-05-06T22:38:11.689Z,68.35
2023-05-06T22:40:46.181Z,68.03
2023-05-06T22:43:19.798Z,68.06
2023-05-06T22:45:53.663Z,68.02
2023-05-06T22:48:27.292Z,67.82
2023-05-06T22:51:01.666Z,67.78
2023-05-06T22:53:35.509Z,67.93
2023-05-06T22:56:10.706Z,67.80
2023-05-06T22:58:44.285Z,67.82
2023-05-06T23:01:18.540Z,67.75
2023-05-06T23:03:52.343Z,67.67
2023-05-06T23:06:25.921Z,67.73
2023-05-06T23:08:59.759Z,67.83
2023-05-06T23:11:33.342Z,67.91
2023-05-06T23:14:07.840Z,67.75
2023-05-06T23:16:41.513Z,68.04
2023-05-06T23:19:15.819Z,68.17
2023-05-06T23:21:49.739Z,67.97
2023-05-06T23:24:23.425Z,67.90
2023-05-06T23:26:57.237Z,67.89
2023-05-06T23:29:31.264Z,67.85
2023-05-06T23:32:05.076Z,68.12
2023-05-06T23:34:38.883Z,67.99
2023-05-06T23:37:13.399Z,67.97
2023-05-06T23:39:47.920Z,67.71
2023-05-06T23:42:22.817Z,67.54
2023-05-06T23:44:57.435Z,67.57
2023-05-06T23:47:31.514Z,67.65
2023-05-06T23:50:06.004Z,67.50
2023-05-06T23:52:39.570Z,67.50
2023-05-06T23:55:14.236Z,67.76
2023-05-06T23:57:48.408Z,67.78
